sensor_id;sensor_type;location;lat;lon;timestamp;P1;durP1;ratioP1;P2;durP2;ratioP2
33696;SDS011;20031;43.416;23.232;2023-06-19T00:00:02;5.38;;;3.30;;
33696;SDS011;20031;43.416;23.232;2023-06-19T00:02:32;8.52;;;3.20;;
33696;SDS011;20031;43.416;23.232;2023-06-19T00:04:58;6.45;;;3.28;;
33696;SDS011;20031;43.416;23.232;2023-06-19T00:07:23;6.72;;;3.28;;
33696;SDS011;20031;43.416;23.232;2023-06-19T00:09:49;7.38;;;3.45;;
33696;SDS011;20031;43.416;23.232;2023-06-19T00:12:14;5.80;;;3.28;;
33696;SDS011;20031;43.416;23.232;2023-06-19T00:14:40;6.20;;;3.50;;
33696;SDS011;20031;43.416;23.232;2023-06-19T00:17:05;6.70;;;3.30;;
33696;SDS011;20031;43.416;23.232;2023-06-19T00:19:32;4.30;;;3.28;;
33696;SDS011;20031;43.416;23.232;2023-06-19T00:22:01;7.82;;;3.55;;
33696;SDS011;20031;43.416;23.232;2023-06-19T00:24:28;10.13;;;3.20;;
33696;SDS011;20031;43.416;23.232;2023-06-19T00:26:53;8.73;;;3.63;;
33696;SDS011;20031;43.416;23.232;2023-06-19T00:29:19;7.60;;;3.35;;
33696;SDS011;20031;43.416;23.232;2023-06-19T00:31:44;6.25;;;3.00;;
33696;SDS011;20031;43.416;23.232;2023-06-19T00:34:09;7.55;;;3.20;;
33696;SDS011;20031;43.416;23.232;2023-06-19T00:36:35;6.55;;;3.55;;
33696;SDS011;20031;43.416;23.232;2023-06-19T00:39:05;6.22;;;3.13;;
33696;SDS011;20031;43.416;23.232;2023-06-19T00:41:32;7.85;;;3.03;;
33696;SDS011;20031;43.416;23.232;2023-06-19T00:44:00;5.28;;;2.97;;
33696;SDS011;20031;43.416;23.232;2023-06-19T00:46:25;6.70;;;3.10;;
33696;SDS011;20031;43.416;23.232;2023-06-19T00:48:51;6.53;;;3.00;;
33696;SDS011;20031;43.416;23.232;2023-06-19T00:51:17;6.97;;;3.00;;
33696;SDS011;20031;43.416;23.232;2023-06-19T00:53:43;7.13;;;3.10;;
33696;SDS011;20031;43.416;23.232;2023-06-19T00:56:08;5.65;;;3.42;;
33696;SDS011;20031;43.416;23.232;2023-06-19T00:58:34;8.50;;;3.20;;
33696;SDS011;20031;43.416;23.232;2023-06-19T01:01:00;5.93;;;3.20;;
33696;SDS011;20031;43.416;23.232;2023-06-19T01:03:26;8.95;;;2.85;;
33696;SDS011;20031;43.416;23.232;2023-06-19T01:05:51;6.32;;;2.88;;
33696;SDS011;20031;43.416;23.232;2023-06-19T01:08:37;5.25;;;2.92;;
33696;SDS011;20031;43.416;23.232;2023-06-19T01:11:05;6.70;;;3.22;;
33696;SDS011;20031;43.416;23.232;2023-06-19T01:13:46;7.70;;;2.83;;
33696;SDS011;20031;43.416;23.232;2023-06-19T01:16:16;8.70;;;3.08;;
33696;SDS011;20031;43.416;23.232;2023-06-19T01:18:42;5.40;;;3.08;;
33696;SDS011;20031;43.416;23.232;2023-06-19T01:21:11;5.22;;;2.80;;
33696;SDS011;20031;43.416;23.232;2023-06-19T01:23:41;5.45;;;2.70;;
33696;SDS011;20031;43.416;23.232;2023-06-19T01:26:08;7.57;;;3.20;;
33696;SDS011;20031;43.416;23.232;2023-06-19T01:28:35;7.13;;;3.10;;
33696;SDS011;20031;43.416;23.232;2023-06-19T01:31:02;10.27;;;3.03;;
33696;SDS011;20031;43.416;23.232;2023-06-19T01:33:31;6.95;;;2.85;;
33696;SDS011;20031;43.416;23.232;2023-06-19T01:35:58;6.57;;;2.80;;
33696;SDS011;20031;43.416;23.232;2023-06-19T01:38:26;10.15;;;3.15;;
33696;SDS011;20031;43.416;23.232;2023-06-19T01:40:54;8.25;;;3.05;;
33696;SDS011;20031;43.416;23.232;2023-06-19T01:43:22;17.77;;;3.40;;
33696;SDS011;20031;43.416;23.232;2023-06-19T01:45:49;7.78;;;3.25;;
33696;SDS011;20031;43.416;23.232;2023-06-19T01:48:15;10.10;;;3.60;;
33696;SDS011;20031;43.416;23.232;2023-06-19T01:50:41;13.55;;;3.58;;
33696;SDS011;20031;43.416;23.232;2023-06-19T01:53:11;12.75;;;3.40;;
33696;SDS011;20031;43.416;23.232;2023-06-19T01:55:36;14.15;;;3.40;;
33696;SDS011;20031;43.416;23.232;2023-06-19T01:58:02;12.35;;;3.38;;
33696;SDS011;20031;43.416;23.232;2023-06-19T02:00:28;6.20;;;3.40;;
33696;SDS011;20031;43.416;23.232;2023-06-19T02:02:53;7.88;;;3.33;;
33696;SDS011;20031;43.416;23.232;2023-06-19T02:05:18;11.20;;;3.40;;
33696;SDS011;20031;43.416;23.232;2023-06-19T02:07:44;12.98;;;3.45;;
33696;SDS011;20031;43.416;23.232;2023-06-19T02:10:09;24.48;;;3.70;;
33696;SDS011;20031;43.416;23.232;2023-06-19T02:12:35;13.23;;;3.50;;
33696;SDS011;20031;43.416;23.232;2023-06-19T02:15:00;11.05;;;3.40;;
33696;SDS011;20031;43.416;23.232;2023-06-19T02:17:26;26.40;;;3.47;;
33696;SDS011;20031;43.416;23.232;2023-06-19T02:19:51;14.30;;;4.15;;
33696;SDS011;20031;43.416;23.232;2023-06-19T02:22:17;20.98;;;3.67;;
33696;SDS011;20031;43.416;23.232;2023-06-19T02:24:43;16.13;;;4.10;;
33696;SDS011;20031;43.416;23.232;2023-06-19T02:27:09;31.35;;;4.70;;
33696;SDS011;20031;43.416;23.232;2023-06-19T02:29:35;35.00;;;5.28;;
33696;SDS011;20031;43.416;23.232;2023-06-19T02:32:01;20.55;;;4.43;;
33696;SDS011;20031;43.416;23.232;2023-06-19T02:34:26;23.20;;;5.07;;
33696;SDS011;20031;43.416;23.232;2023-06-19T02:36:52;25.77;;;5.13;;
33696;SDS011;20031;43.416;23.232;2023-06-19T02:39:18;21.30;;;5.13;;
33696;SDS011;20031;43.416;23.232;2023-06-19T02:41:43;29.77;;;4.95;;
33696;SDS011;20031;43.416;23.232;2023-06-19T02:44:14;20.55;;;4.38;;
33696;SDS011;20031;43.416;23.232;2023-06-19T02:46:40;19.30;;;4.22;;
33696;SDS011;20031;43.416;23.232;2023-06-19T02:49:05;10.88;;;3.40;;
33696;SDS011;20031;43.416;23.232;2023-06-19T02:51:31;16.70;;;3.85;;
33696;SDS011;20031;43.416;23.232;2023-06-19T02:53:56;13.70;;;3.67;;
33696;SDS011;20031;43.416;23.232;2023-06-19T02:56:22;19.48;;;4.40;;
33696;SDS011;20031;43.416;23.232;2023-06-19T02:58:49;17.10;;;4.50;;
33696;SDS011;20031;43.416;23.232;2023-06-19T03:01:14;19.60;;;5.03;;
33696;SDS011;20031;43.416;23.232;2023-06-19T03:03:40;18.83;;;4.70;;
33696;SDS011;20031;43.416;23.232;2023-06-19T03:06:06;13.95;;;5.05;;
33696;SDS011;20031;43.416;23.232;2023-06-19T03:08:36;29.20;;;5.90;;
33696;SDS011;20031;43.416;23.232;2023-06-19T03:11:02;22.60;;;6.00;;
33696;SDS011;20031;43.416;23.232;2023-06-19T03:13:35;29.05;;;6.32;;
33696;SDS011;20031;43.416;23.232;2023-06-19T03:16:11;24.10;;;5.15;;
33696;SDS011;20031;43.416;23.232;2023-06-19T03:18:37;21.52;;;5.03;;
33696;SDS011;20031;43.416;23.232;2023-06-19T03:21:03;12.65;;;4.20;;
33696;SDS011;20031;43.416;23.232;2023-06-19T03:23:28;12.10;;;3.80;;
33696;SDS011;20031;43.416;23.232;2023-06-19T03:25:53;11.55;;;3.35;;
33696;SDS011;20031;43.416;23.232;2023-06-19T03:28:19;7.00;;;3.35;;
33696;SDS011;20031;43.416;23.232;2023-06-19T03:30:45;6.60;;;3.17;;
33696;SDS011;20031;43.416;23.232;2023-06-19T03:33:10;14.00;;;3.42;;
33696;SDS011;20031;43.416;23.232;2023-06-19T03:35:35;9.93;;;3.10;;
33696;SDS011;20031;43.416;23.232;2023-06-19T03:38:01;7.05;;;3.20;;
33696;SDS011;20031;43.416;23.232;2023-06-19T03:40:26;5.72;;;2.95;;
33696;SDS011;20031;43.416;23.232;2023-06-19T03:42:52;7.18;;;3.25;;
33696;SDS011;20031;43.416;23.232;2023-06-19T03:45:18;8.80;;;2.58;;
33696;SDS011;20031;43.416;23.232;2023-06-19T03:47:43;8.35;;;3.22;;
33696;SDS011;20031;43.416;23.232;2023-06-19T03:50:09;6.25;;;3.42;;
33696;SDS011;20031;43.416;23.232;2023-06-19T03:52:35;10.25;;;3.53;;
33696;SDS011;20031;43.416;23.232;2023-06-19T03:55:02;7.97;;;3.35;;
33696;SDS011;20031;43.416;23.232;2023-06-19T03:57:28;10.98;;;3.28;;
33696;SDS011;20031;43.416;23.232;2023-06-19T03:59:53;10.32;;;3.45;;
33696;SDS011;20031;43.416;23.232;2023-06-19T04:02:19;7.13;;;3.72;;
33696;SDS011;20031;43.416;23.232;2023-06-19T04:04:44;10.75;;;3.53;;
33696;SDS011;20031;43.416;23.232;2023-06-19T04:07:09;12.88;;;3.97;;
33696;SDS011;20031;43.416;23.232;2023-06-19T04:09:35;7.82;;;4.13;;
33696;SDS011;20031;43.416;23.232;2023-06-19T04:12:01;12.13;;;3.60;;
33696;SDS011;20031;43.416;23.232;2023-06-19T04:14:26;11.65;;;3.40;;
33696;SDS011;20031;43.416;23.232;2023-06-19T04:16:52;12.40;;;3.63;;
33696;SDS011;20031;43.416;23.232;2023-06-19T04:19:17;7.47;;;3.80;;
33696;SDS011;20031;43.416;23.232;2023-06-19T04:21:43;11.55;;;3.83;;
33696;SDS011;20031;43.416;23.232;2023-06-19T04:24:08;12.63;;;3.58;;
33696;SDS011;20031;43.416;23.232;2023-06-19T04:26:34;11.75;;;3.90;;
33696;SDS011;20031;43.416;23.232;2023-06-19T04:29:01;16.05;;;4.15;;
33696;SDS011;20031;43.416;23.232;2023-06-19T04:31:27;9.93;;;4.45;;
33696;SDS011;20031;43.416;23.232;2023-06-19T04:33:53;11.32;;;3.50;;
33696;SDS011;20031;43.416;23.232;2023-06-19T04:36:21;9.98;;;3.85;;
33696;SDS011;20031;43.416;23.232;2023-06-19T04:38:47;14.05;;;3.45;;
33696;SDS011;20031;43.416;23.232;2023-06-19T04:41:14;14.27;;;3.88;;
33696;SDS011;20031;43.416;23.232;2023-06-19T04:43:40;18.08;;;4.28;;
33696;SDS011;20031;43.416;23.232;2023-06-19T04:46:08;14.30;;;3.88;;
33696;SDS011;20031;43.416;23.232;2023-06-19T04:48:33;13.27;;;4.35;;
33696;SDS011;20031;43.416;23.232;2023-06-19T04:51:01;14.88;;;4.35;;
33696;SDS011;20031;43.416;23.232;2023-06-19T04:53:27;24.88;;;4.43;;
33696;SDS011;20031;43.416;23.232;2023-06-19T04:55:53;17.00;;;4.40;;
33696;SDS011;20031;43.416;23.232;2023-06-19T04:58:20;22.90;;;4.07;;
33696;SDS011;20031;43.416;23.232;2023-06-19T05:00:47;18.02;;;3.80;;
33696;SDS011;20031;43.416;23.232;2023-06-19T05:03:17;8.50;;;3.60;;
33696;SDS011;20031;43.416;23.232;2023-06-19T05:05:43;9.82;;;3.45;;
33696;SDS011;20031;43.416;23.232;2023-06-19T05:08:09;14.95;;;4.20;;
33696;SDS011;20031;43.416;23.232;2023-06-19T05:10:35;12.05;;;4.53;;
33696;SDS011;20031;43.416;23.232;2023-06-19T05:13:00;14.50;;;4.60;;
33696;SDS011;20031;43.416;23.232;2023-06-19T05:15:27;37.55;;;13.07;;
33696;SDS011;20031;43.416;23.232;2023-06-19T05:17:53;15.75;;;4.85;;
33696;SDS011;20031;43.416;23.232;2023-06-19T05:20:18;14.70;;;4.55;;
33696;SDS011;20031;43.416;23.232;2023-06-19T05:22:44;17.23;;;4.25;;
33696;SDS011;20031;43.416;23.232;2023-06-19T05:25:10;14.82;;;4.35;;
33696;SDS011;20031;43.416;23.232;2023-06-19T05:27:35;9.73;;;3.90;;
33696;SDS011;20031;43.416;23.232;2023-06-19T05:30:01;9.00;;;3.88;;
33696;SDS011;20031;43.416;23.232;2023-06-19T05:32:26;8.65;;;3.80;;
33696;SDS011;20031;43.416;23.232;2023-06-19T05:34:52;9.15;;;3.92;;
33696;SDS011;20031;43.416;23.232;2023-06-19T05:37:18;14.80;;;3.67;;
33696;SDS011;20031;43.416;23.232;2023-06-19T05:39:44;14.35;;;4.35;;
33696;SDS011;20031;43.416;23.232;2023-06-19T05:42:09;16.50;;;4.22;;
33696;SDS011;20031;43.416;23.232;2023-06-19T05:44:34;20.88;;;4.82;;
33696;SDS011;20031;43.416;23.232;2023-06-19T05:47:00;13.15;;;4.63;;
33696;SDS011;20031;43.416;23.232;2023-06-19T05:49:26;14.65;;;4.65;;
33696;SDS011;20031;43.416;23.232;2023-06-19T05:51:51;14.55;;;4.82;;
33696;SDS011;20031;43.416;23.232;2023-06-19T05:54:16;20.10;;;4.68;;
33696;SDS011;20031;43.416;23.232;2023-06-19T05:56:43;16.52;;;4.57;;
33696;SDS011;20031;43.416;23.232;2023-06-19T05:59:08;17.98;;;4.57;;
33696;SDS011;20031;43.416;23.232;2023-06-19T06:01:33;15.27;;;4.50;;
33696;SDS011;20031;43.416;23.232;2023-06-19T06:03:59;13.82;;;4.38;;
33696;SDS011;20031;43.416;23.232;2023-06-19T06:06:27;19.33;;;4.40;;
33696;SDS011;20031;43.416;23.232;2023-06-19T06:08:52;18.25;;;4.47;;
33696;SDS011;20031;43.416;23.232;2023-06-19T06:11:19;15.38;;;4.80;;
33696;SDS011;20031;43.416;23.232;2023-06-19T06:13:45;11.77;;;3.83;;
33696;SDS011;20031;43.416;23.232;2023-06-19T06:16:10;8.80;;;4.25;;
33696;SDS011;20031;43.416;23.232;2023-06-19T06:18:36;10.30;;;3.55;;
33696;SDS011;20031;43.416;23.232;2023-06-19T06:21:01;9.93;;;3.30;;
33696;SDS011;20031;43.416;23.232;2023-06-19T06:23:27;8.10;;;3.30;;
33696;SDS011;20031;43.416;23.232;2023-06-19T06:25:53;4.18;;;2.75;;
33696;SDS011;20031;43.416;23.232;2023-06-19T06:28:22;8.30;;;3.28;;
33696;SDS011;20031;43.416;23.232;2023-06-19T06:30:47;7.88;;;3.55;;
33696;SDS011;20031;43.416;23.232;2023-06-19T06:33:12;10.88;;;3.22;;
33696;SDS011;20031;43.416;23.232;2023-06-19T06:35:38;8.85;;;2.90;;
33696;SDS011;20031;43.416;23.232;2023-06-19T06:38:04;8.02;;;3.20;;
33696;SDS011;20031;43.416;23.232;2023-06-19T06:40:29;5.80;;;3.00;;
33696;SDS011;20031;43.416;23.232;2023-06-19T06:42:55;8.85;;;3.10;;
33696;SDS011;20031;43.416;23.232;2023-06-19T06:45:20;5.38;;;3.17;;
33696;SDS011;20031;43.416;23.232;2023-06-19T06:47:46;5.40;;;3.17;;
33696;SDS011;20031;43.416;23.232;2023-06-19T06:50:11;5.18;;;3.00;;
33696;SDS011;20031;43.416;23.232;2023-06-19T06:52:37;6.13;;;3.08;;
33696;SDS011;20031;43.416;23.232;2023-06-19T06:55:03;3.83;;;2.70;;
33696;SDS011;20031;43.416;23.232;2023-06-19T06:57:29;5.30;;;3.35;;
33696;SDS011;20031;43.416;23.232;2023-06-19T06:59:55;5.60;;;2.92;;
33696;SDS011;20031;43.416;23.232;2023-06-19T07:02:20;5.38;;;3.17;;
33696;SDS011;20031;43.416;23.232;2023-06-19T07:04:45;6.90;;;3.10;;
33696;SDS011;20031;43.416;23.232;2023-06-19T07:07:11;5.88;;;2.95;;
33696;SDS011;20031;43.416;23.232;2023-06-19T07:09:36;8.88;;;2.92;;
33696;SDS011;20031;43.416;23.232;2023-06-19T07:12:02;6.32;;;3.47;;
33696;SDS011;20031;43.416;23.232;2023-06-19T07:14:30;7.03;;;3.28;;
33696;SDS011;20031;43.416;23.232;2023-06-19T07:16:55;6.60;;;2.95;;
33696;SDS011;20031;43.416;23.232;2023-06-19T07:19:21;7.85;;;3.08;;
33696;SDS011;20031;43.416;23.232;2023-06-19T07:21:46;16.15;;;4.00;;
33696;SDS011;20031;43.416;23.232;2023-06-19T07:24:12;9.43;;;3.42;;
33696;SDS011;20031;43.416;23.232;2023-06-19T07:26:37;8.25;;;3.30;;
33696;SDS011;20031;43.416;23.232;2023-06-19T07:29:03;5.88;;;2.85;;
33696;SDS011;20031;43.416;23.232;2023-06-19T07:31:28;4.70;;;3.08;;
33696;SDS011;20031;43.416;23.232;2023-06-19T07:33:54;7.63;;;2.97;;
33696;SDS011;20031;43.416;23.232;2023-06-19T07:36:19;6.18;;;3.08;;
33696;SDS011;20031;43.416;23.232;2023-06-19T07:38:45;8.20;;;3.20;;
33696;SDS011;20031;43.416;23.232;2023-06-19T07:41:11;18.05;;;3.67;;
33696;SDS011;20031;43.416;23.232;2023-06-19T07:43:37;10.25;;;2.90;;
33696;SDS011;20031;43.416;23.232;2023-06-19T07:46:03;5.25;;;2.80;;
33696;SDS011;20031;43.416;23.232;2023-06-19T07:48:28;5.93;;;3.35;;
33696;SDS011;20031;43.416;23.232;2023-06-19T07:50:54;8.57;;;3.00;;
33696;SDS011;20031;43.416;23.232;2023-06-19T07:53:20;6.82;;;3.25;;
33696;SDS011;20031;43.416;23.232;2023-06-19T07:55:45;9.88;;;3.28;;
33696;SDS011;20031;43.416;23.232;2023-06-19T07:58:11;5.45;;;3.50;;
33696;SDS011;20031;43.416;23.232;2023-06-19T08:00:36;9.40;;;3.30;;
33696;SDS011;20031;43.416;23.232;2023-06-19T08:03:02;12.02;;;3.10;;
33696;SDS011;20031;43.416;23.232;2023-06-19T08:05:27;4.07;;;2.97;;
33696;SDS011;20031;43.416;23.232;2023-06-19T08:07:52;7.45;;;3.35;;
33696;SDS011;20031;43.416;23.232;2023-06-19T08:10:18;11.10;;;3.40;;
33696;SDS011;20031;43.416;23.232;2023-06-19T08:12:44;8.70;;;3.60;;
33696;SDS011;20031;43.416;23.232;2023-06-19T08:15:10;12.00;;;3.70;;
33696;SDS011;20031;43.416;23.232;2023-06-19T08:17:38;4.63;;;3.33;;
33696;SDS011;20031;43.416;23.232;2023-06-19T08:20:04;9.02;;;3.45;;
33696;SDS011;20031;43.416;23.232;2023-06-19T08:22:30;9.38;;;3.33;;
33696;SDS011;20031;43.416;23.232;2023-06-19T08:24:56;7.38;;;3.08;;
33696;SDS011;20031;43.416;23.232;2023-06-19T08:27:21;6.43;;;3.22;;
33696;SDS011;20031;43.416;23.232;2023-06-19T08:29:47;15.65;;;3.58;;
33696;SDS011;20031;43.416;23.232;2023-06-19T08:32:12;5.25;;;3.45;;
33696;SDS011;20031;43.416;23.232;2023-06-19T08:34:38;8.00;;;3.00;;
33696;SDS011;20031;43.416;23.232;2023-06-19T08:37:04;7.40;;;3.22;;
33696;SDS011;20031;43.416;23.232;2023-06-19T08:39:30;7.15;;;3.60;;
33696;SDS011;20031;43.416;23.232;2023-06-19T08:41:56;5.80;;;3.20;;
33696;SDS011;20031;43.416;23.232;2023-06-19T08:44:21;14.40;;;3.58;;
33696;SDS011;20031;43.416;23.232;2023-06-19T08:46:47;6.70;;;2.97;;
33696;SDS011;20031;43.416;23.232;2023-06-19T08:49:12;7.40;;;3.55;;
33696;SDS011;20031;43.416;23.232;2023-06-19T08:51:39;13.98;;;3.78;;
33696;SDS011;20031;43.416;23.232;2023-06-19T08:54:06;6.63;;;3.40;;
33696;SDS011;20031;43.416;23.232;2023-06-19T08:56:33;6.20;;;3.33;;
33696;SDS011;20031;43.416;23.232;2023-06-19T08:59:12;7.70;;;3.22;;
33696;SDS011;20031;43.416;23.232;2023-06-19T09:01:52;8.57;;;3.10;;
33696;SDS011;20031;43.416;23.232;2023-06-19T09:04:20;5.63;;;3.20;;
33696;SDS011;20031;43.416;23.232;2023-06-19T09:06:57;10.98;;;3.10;;
33696;SDS011;20031;43.416;23.232;2023-06-19T09:09:24;13.48;;;5.63;;
33696;SDS011;20031;43.416;23.232;2023-06-19T09:17:06;5.13;;;3.30;;
33696;SDS011;20031;43.416;23.232;2023-06-19T09:19:36;13.32;;;5.15;;
33696;SDS011;20031;43.416;23.232;2023-06-19T09:22:03;12.45;;;5.50;;
33696;SDS011;20031;43.416;23.232;2023-06-19T09:24:36;10.15;;;5.80;;
33696;SDS011;20031;43.416;23.232;2023-06-19T09:27:06;13.95;;;6.20;;
33696;SDS011;20031;43.416;23.232;2023-06-19T09:29:36;7.45;;;3.75;;
33696;SDS011;20031;43.416;23.232;2023-06-19T09:32:24;11.20;;;3.22;;
33696;SDS011;20031;43.416;23.232;2023-06-19T09:34:51;7.30;;;3.60;;
33696;SDS011;20031;43.416;23.232;2023-06-19T09:37:25;7.53;;;3.22;;
33696;SDS011;20031;43.416;23.232;2023-06-19T09:42:32;8.85;;;3.47;;
33696;SDS011;20031;43.416;23.232;2023-06-19T09:45:06;7.40;;;3.33;;
33696;SDS011;20031;43.416;23.232;2023-06-19T09:47:35;6.63;;;3.22;;
33696;SDS011;20031;43.416;23.232;2023-06-19T09:50:02;10.07;;;3.40;;
33696;SDS011;20031;43.416;23.232;2023-06-19T09:52:28;7.53;;;3.28;;
33696;SDS011;20031;43.416;23.232;2023-06-19T09:54:55;8.43;;;3.78;;
33696;SDS011;20031;43.416;23.232;2023-06-19T09:57:21;6.07;;;3.20;;
33696;SDS011;20031;43.416;23.232;2023-06-19T09:59:48;5.75;;;3.40;;
33696;SDS011;20031;43.416;23.232;2023-06-19T10:02:17;7.55;;;3.03;;
33696;SDS011;20031;43.416;23.232;2023-06-19T10:04:45;6.95;;;3.45;;
33696;SDS011;20031;43.416;23.232;2023-06-19T10:07:18;10.00;;;3.20;;
33696;SDS011;20031;43.416;23.232;2023-06-19T10:09:59;11.75;;;3.70;;
33696;SDS011;20031;43.416;23.232;2023-06-19T10:12:33;5.68;;;3.45;;
33696;SDS011;20031;43.416;23.232;2023-06-19T10:17:35;4.18;;;2.95;;
33696;SDS011;20031;43.416;23.232;2023-06-19T10:20:00;6.00;;;3.20;;
33696;SDS011;20031;43.416;23.232;2023-06-19T10:22:32;4.15;;;3.17;;
33696;SDS011;20031;43.416;23.232;2023-06-19T10:24:58;6.95;;;3.10;;
33696;SDS011;20031;43.416;23.232;2023-06-19T10:27:24;6.85;;;3.50;;
33696;SDS011;20031;43.416;23.232;2023-06-19T10:29:53;9.30;;;3.10;;
33696;SDS011;20031;43.416;23.232;2023-06-19T10:32:22;10.73;;;3.42;;
33696;SDS011;20031;43.416;23.232;2023-06-19T10:34:48;4.90;;;3.05;;
33696;SDS011;20031;43.416;23.232;2023-06-19T10:37:16;5.63;;;2.92;;
33696;SDS011;20031;43.416;23.232;2023-06-19T10:39:42;6.15;;;3.20;;
33696;SDS011;20031;43.416;23.232;2023-06-19T10:42:09;6.25;;;2.72;;
33696;SDS011;20031;43.416;23.232;2023-06-19T10:44:35;7.95;;;3.10;;
33696;SDS011;20031;43.416;23.232;2023-06-19T10:47:04;7.03;;;2.90;;
33696;SDS011;20031;43.416;23.232;2023-06-19T10:49:32;3.63;;;2.83;;
33696;SDS011;20031;43.416;23.232;2023-06-19T10:51:59;7.43;;;3.33;;
33696;SDS011;20031;43.416;23.232;2023-06-19T10:54:25;7.07;;;3.13;;
33696;SDS011;20031;43.416;23.232;2023-06-19T10:56:51;5.18;;;3.05;;
33696;SDS011;20031;43.416;23.232;2023-06-19T10:59:16;5.97;;;3.17;;
33696;SDS011;20031;43.416;23.232;2023-06-19T11:01:47;4.90;;;3.20;;
33696;SDS011;20031;43.416;23.232;2023-06-19T11:04:15;6.13;;;3.13;;
33696;SDS011;20031;43.416;23.232;2023-06-19T11:06:41;6.03;;;3.10;;
33696;SDS011;20031;43.416;23.232;2023-06-19T11:09:10;9.63;;;3.00;;
33696;SDS011;20031;43.416;23.232;2023-06-19T11:11:47;7.55;;;3.80;;
33696;SDS011;20031;43.416;23.232;2023-06-19T11:14:14;8.57;;;3.53;;
33696;SDS011;20031;43.416;23.232;2023-06-19T11:16:42;7.47;;;3.22;;
33696;SDS011;20031;43.416;23.232;2023-06-19T11:19:09;7.78;;;3.17;;
33696;SDS011;20031;43.416;23.232;2023-06-19T11:21:40;5.30;;;3.17;;
33696;SDS011;20031;43.416;23.232;2023-06-19T11:24:06;7.13;;;3.33;;
33696;SDS011;20031;43.416;23.232;2023-06-19T11:26:39;6.85;;;3.30;;
33696;SDS011;20031;43.416;23.232;2023-06-19T11:29:22;8.43;;;3.17;;
33696;SDS011;20031;43.416;23.232;2023-06-19T11:31:50;5.72;;;3.10;;
33696;SDS011;20031;43.416;23.232;2023-06-19T11:34:16;4.43;;;3.00;;
33696;SDS011;20031;43.416;23.232;2023-06-19T11:36:42;6.63;;;3.17;;
33696;SDS011;20031;43.416;23.232;2023-06-19T11:39:09;6.82;;;3.20;;
33696;SDS011;20031;43.416;23.232;2023-06-19T11:41:36;5.45;;;3.17;;
33696;SDS011;20031;43.416;23.232;2023-06-19T11:44:05;6.35;;;3.10;;
33696;SDS011;20031;43.416;23.232;2023-06-19T11:46:32;5.40;;;3.30;;
33696;SDS011;20031;43.416;23.232;2023-06-19T11:51:39;7.05;;;3.40;;
33696;SDS011;20031;43.416;23.232;2023-06-19T11:54:06;10.93;;;3.92;;
33696;SDS011;20031;43.416;23.232;2023-06-19T11:56:36;5.75;;;3.28;;
33696;SDS011;20031;43.416;23.232;2023-06-19T11:59:02;10.45;;;3.60;;
33696;SDS011;20031;43.416;23.232;2023-06-19T12:01:28;11.23;;;3.80;;
33696;SDS011;20031;43.416;23.232;2023-06-19T12:03:54;8.50;;;3.42;;
33696;SDS011;20031;43.416;23.232;2023-06-19T12:06:20;9.38;;;3.80;;
33696;SDS011;20031;43.416;23.232;2023-06-19T12:08:46;5.88;;;3.60;;
33696;SDS011;20031;43.416;23.232;2023-06-19T12:11:11;13.20;;;3.33;;
33696;SDS011;20031;43.416;23.232;2023-06-19T12:13:42;8.45;;;3.42;;
33696;SDS011;20031;43.416;23.232;2023-06-19T12:16:08;6.57;;;3.65;;
33696;SDS011;20031;43.416;23.232;2023-06-19T12:18:35;5.28;;;3.42;;
33696;SDS011;20031;43.416;23.232;2023-06-19T12:21:00;4.05;;;3.38;;
33696;SDS011;20031;43.416;23.232;2023-06-19T12:23:26;5.55;;;3.22;;
33696;SDS011;20031;43.416;23.232;2023-06-19T12:25:51;7.28;;;3.70;;
33696;SDS011;20031;43.416;23.232;2023-06-19T12:28:17;19.98;;;10.85;;
33696;SDS011;20031;43.416;23.232;2023-06-19T12:30:46;12.50;;;6.80;;
33696;SDS011;20031;43.416;23.232;2023-06-19T12:33:15;21.65;;;6.38;;
33696;SDS011;20031;43.416;23.232;2023-06-19T12:35:42;11.80;;;3.72;;
33696;SDS011;20031;43.416;23.232;2023-06-19T12:38:08;5.75;;;3.20;;
33696;SDS011;20031;43.416;23.232;2023-06-19T12:40:35;9.32;;;3.55;;
33696;SDS011;20031;43.416;23.232;2023-06-19T12:43:01;5.03;;;3.55;;
33696;SDS011;20031;43.416;23.232;2023-06-19T12:45:27;6.78;;;3.75;;
33696;SDS011;20031;43.416;23.232;2023-06-19T12:47:53;6.68;;;3.45;;
33696;SDS011;20031;43.416;23.232;2023-06-19T12:50:18;9.57;;;3.28;;
33696;SDS011;20031;43.416;23.232;2023-06-19T12:52:44;5.68;;;3.45;;
33696;SDS011;20031;43.416;23.232;2023-06-19T12:55:09;10.10;;;3.25;;
33696;SDS011;20031;43.416;23.232;2023-06-19T12:57:34;4.90;;;3.40;;
33696;SDS011;20031;43.416;23.232;2023-06-19T13:00:01;6.28;;;3.25;;
33696;SDS011;20031;43.416;23.232;2023-06-19T13:02:28;5.85;;;3.35;;
33696;SDS011;20031;43.416;23.232;2023-06-19T13:04:54;7.85;;;3.35;;
33696;SDS011;20031;43.416;23.232;2023-06-19T13:07:19;7.10;;;3.40;;
33696;SDS011;20031;43.416;23.232;2023-06-19T13:09:44;6.35;;;3.80;;
33696;SDS011;20031;43.416;23.232;2023-06-19T13:12:10;7.20;;;3.33;;
33696;SDS011;20031;43.416;23.232;2023-06-19T13:14:35;9.90;;;3.60;;
33696;SDS011;20031;43.416;23.232;2023-06-19T13:17:02;5.60;;;3.28;;
33696;SDS011;20031;43.416;23.232;2023-06-19T13:19:28;11.02;;;3.80;;
33696;SDS011;20031;43.416;23.232;2023-06-19T13:21:53;6.75;;;3.67;;
33696;SDS011;20031;43.416;23.232;2023-06-19T13:24:19;8.68;;;3.40;;
33696;SDS011;20031;43.416;23.232;2023-06-19T13:26:44;9.45;;;3.50;;
33696;SDS011;20031;43.416;23.232;2023-06-19T13:29:13;13.38;;;3.60;;
33696;SDS011;20031;43.416;23.232;2023-06-19T13:31:38;7.03;;;3.33;;
33696;SDS011;20031;43.416;23.232;2023-06-19T13:34:04;6.85;;;3.08;;
33696;SDS011;20031;43.416;23.232;2023-06-19T13:36:29;8.25;;;3.40;;
33696;SDS011;20031;43.416;23.232;2023-06-19T13:38:55;7.43;;;3.33;;
33696;SDS011;20031;43.416;23.232;2023-06-19T13:41:21;6.10;;;3.10;;
33696;SDS011;20031;43.416;23.232;2023-06-19T13:43:48;6.20;;;3.22;;
33696;SDS011;20031;43.416;23.232;2023-06-19T13:46:15;4.97;;;3.03;;
33696;SDS011;20031;43.416;23.232;2023-06-19T13:48:41;3.90;;;3.13;;
33696;SDS011;20031;43.416;23.232;2023-06-19T13:51:06;6.38;;;3.15;;
33696;SDS011;20031;43.416;23.232;2023-06-19T13:53:32;5.75;;;3.30;;
33696;SDS011;20031;43.416;23.232;2023-06-19T13:56:02;5.75;;;3.50;;
33696;SDS011;20031;43.416;23.232;2023-06-19T13:58:27;6.45;;;3.45;;
33696;SDS011;20031;43.416;23.232;2023-06-19T14:00:53;9.68;;;3.17;;
33696;SDS011;20031;43.416;23.232;2023-06-19T14:03:18;6.75;;;3.10;;
33696;SDS011;20031;43.416;23.232;2023-06-19T14:05:44;6.63;;;3.17;;
33696;SDS011;20031;43.416;23.232;2023-06-19T14:08:09;7.10;;;3.30;;
33696;SDS011;20031;43.416;23.232;2023-06-19T14:10:35;4.65;;;3.30;;
33696;SDS011;20031;43.416;23.232;2023-06-19T14:13:00;7.05;;;3.22;;
33696;SDS011;20031;43.416;23.232;2023-06-19T14:15:26;11.77;;;3.28;;
33696;SDS011;20031;43.416;23.232;2023-06-19T14:17:51;7.03;;;3.15;;
33696;SDS011;20031;43.416;23.232;2023-06-19T14:20:17;5.50;;;3.35;;
33696;SDS011;20031;43.416;23.232;2023-06-19T14:22:42;10.65;;;3.60;;
33696;SDS011;20031;43.416;23.232;2023-06-19T14:25:08;7.72;;;2.83;;
33696;SDS011;20031;43.416;23.232;2023-06-19T14:27:33;4.45;;;3.08;;
33696;SDS011;20031;43.416;23.232;2023-06-19T14:29:59;12.27;;;3.70;;
33696;SDS011;20031;43.416;23.232;2023-06-19T14:32:24;9.95;;;3.25;;
33696;SDS011;20031;43.416;23.232;2023-06-19T14:34:50;7.80;;;3.10;;
33696;SDS011;20031;43.416;23.232;2023-06-19T14:37:15;6.60;;;3.15;;
33696;SDS011;20031;43.416;23.232;2023-06-19T14:39:41;4.00;;;3.03;;